sensor_id;sensor_type;location;lat;lon;timestamp;P1;durP1;ratioP1;P2;durP2;ratioP2
58470;SDS011;44258;51.288;12.068;2022-11-04T00:01:36;15.00;;;6.35;;
58470;SDS011;44258;51.288;12.068;2022-11-04T00:04:05;13.63;;;6.43;;
58470;SDS011;44258;51.288;12.068;2022-11-04T00:06:33;14.65;;;5.75;;
58470;SDS011;44258;51.288;12.068;2022-11-04T00:09:03;14.23;;;5.95;;
58470;SDS011;44258;51.288;12.068;2022-11-04T00:11:31;10.75;;;5.20;;
58470;SDS011;44258;51.288;12.068;2022-11-04T00:14:15;14.13;;;5.80;;
58470;SDS011;44258;51.288;12.068;2022-11-04T00:16:42;14.45;;;5.63;;
58470;SDS011;44258;51.288;12.068;2022-11-04T00:19:28;15.00;;;6.20;;
58470;SDS011;44258;51.288;12.068;2022-11-04T00:22:14;13.15;;;5.57;;
58470;SDS011;44258;51.288;12.068;2022-11-04T00:25:10;14.15;;;6.32;;
58470;SDS011;44258;51.288;12.068;2022-11-04T00:28:00;18.45;;;6.10;;
58470;SDS011;44258;51.288;12.068;2022-11-04T00:30:46;13.15;;;5.78;;
58470;SDS011;44258;51.288;12.068;2022-11-04T00:33:12;14.18;;;6.55;;
58470;SDS011;44258;51.288;12.068;2022-11-04T00:35:52;15.90;;;6.18;;
58470;SDS011;44258;51.288;12.068;2022-11-04T00:38:20;18.50;;;6.72;;
58470;SDS011;44258;51.288;12.068;2022-11-04T00:40:48;12.85;;;5.60;;
58470;SDS011;44258;51.288;12.068;2022-11-04T00:43:14;14.48;;;5.70;;
58470;SDS011;44258;51.288;12.068;2022-11-04T00:45:41;17.25;;;6.82;;
58470;SDS011;44258;51.288;12.068;2022-11-04T00:48:08;16.67;;;7.13;;
58470;SDS011;44258;51.288;12.068;2022-11-04T00:50:35;14.90;;;5.75;;
58470;SDS011;44258;51.288;12.068;2022-11-04T00:53:03;13.80;;;6.50;;
58470;SDS011;44258;51.288;12.068;2022-11-04T00:55:29;14.73;;;6.53;;
58470;SDS011;44258;51.288;12.068;2022-11-04T00:57:56;15.10;;;6.07;;
58470;SDS011;44258;51.288;12.068;2022-11-04T01:00:23;13.05;;;5.93;;
58470;SDS011;44258;51.288;12.068;2022-11-04T01:02:50;13.02;;;6.13;;
58470;SDS011;44258;51.288;12.068;2022-11-04T01:05:16;15.70;;;6.70;;
58470;SDS011;44258;51.288;12.068;2022-11-04T01:07:43;13.88;;;5.85;;
58470;SDS011;44258;51.288;12.068;2022-11-04T01:10:12;14.55;;;6.55;;
58470;SDS011;44258;51.288;12.068;2022-11-04T01:12:38;15.07;;;6.38;;
58470;SDS011;44258;51.288;12.068;2022-11-04T01:15:05;12.85;;;6.18;;
58470;SDS011;44258;51.288;12.068;2022-11-04T01:17:32;14.40;;;6.18;;
58470;SDS011;44258;51.288;12.068;2022-11-04T01:19:59;14.02;;;5.90;;
58470;SDS011;44258;51.288;12.068;2022-11-04T01:22:25;17.10;;;6.82;;
58470;SDS011;44258;51.288;12.068;2022-11-04T01:24:52;17.38;;;6.50;;
58470;SDS011;44258;51.288;12.068;2022-11-04T01:27:20;13.80;;;6.70;;
58470;SDS011;44258;51.288;12.068;2022-11-04T01:29:46;17.83;;;6.03;;
58470;SDS011;44258;51.288;12.068;2022-11-04T01:32:13;15.93;;;6.75;;
58470;SDS011;44258;51.288;12.068;2022-11-04T01:34:39;14.68;;;6.32;;
58470;SDS011;44258;51.288;12.068;2022-11-04T01:37:06;15.90;;;6.63;;
58470;SDS011;44258;51.288;12.068;2022-11-04T01:39:32;13.02;;;6.10;;
58470;SDS011;44258;51.288;12.068;2022-11-04T01:41:59;12.07;;;5.72;;
58470;SDS011;44258;51.288;12.068;2022-11-04T01:47:15;14.55;;;6.13;;
58470;SDS011;44258;51.288;12.068;2022-11-04T01:49:48;15.95;;;6.82;;
58470;SDS011;44258;51.288;12.068;2022-11-04T01:52:19;14.25;;;5.90;;
58470;SDS011;44258;51.288;12.068;2022-11-04T01:54:50;15.95;;;6.10;;
58470;SDS011;44258;51.288;12.068;2022-11-04T01:57:22;13.35;;;5.78;;
58470;SDS011;44258;51.288;12.068;2022-11-04T01:59:56;14.55;;;6.22;;
58470;SDS011;44258;51.288;12.068;2022-11-04T02:02:26;12.20;;;6.00;;
58470;SDS011;44258;51.288;12.068;2022-11-04T02:04:52;18.10;;;6.35;;
58470;SDS011;44258;51.288;12.068;2022-11-04T02:07:19;12.77;;;5.82;;
58470;SDS011;44258;51.288;12.068;2022-11-04T02:09:46;11.93;;;5.90;;
58470;SDS011;44258;51.288;12.068;2022-11-04T02:12:13;14.02;;;6.03;;
58470;SDS011;44258;51.288;12.068;2022-11-04T02:14:58;17.25;;;5.97;;
58470;SDS011;44258;51.288;12.068;2022-11-04T02:17:28;14.20;;;5.43;;
58470;SDS011;44258;51.288;12.068;2022-11-04T02:20:07;12.05;;;5.72;;
58470;SDS011;44258;51.288;12.068;2022-11-04T02:22:51;12.15;;;5.40;;
58470;SDS011;44258;51.288;12.068;2022-11-04T02:25:36;14.88;;;5.63;;
58470;SDS011;44258;51.288;12.068;2022-11-04T02:28:26;13.82;;;5.30;;
58470;SDS011;44258;51.288;12.068;2022-11-04T02:31:12;12.40;;;4.97;;
58470;SDS011;44258;51.288;12.068;2022-11-04T02:33:45;11.90;;;5.10;;
58470;SDS011;44258;51.288;12.068;2022-11-04T02:36:20;12.15;;;5.20;;
58470;SDS011;44258;51.288;12.068;2022-11-04T02:38:54;11.60;;;5.18;;
58470;SDS011;44258;51.288;12.068;2022-11-04T02:41:26;10.68;;;4.75;;
58470;SDS011;44258;51.288;12.068;2022-11-04T02:44:05;11.00;;;5.20;;
58470;SDS011;44258;51.288;12.068;2022-11-04T02:46:43;11.75;;;4.65;;
58470;SDS011;44258;51.288;12.068;2022-11-04T02:49:15;11.77;;;4.93;;
58470;SDS011;44258;51.288;12.068;2022-11-04T02:51:46;11.07;;;4.78;;
58470;SDS011;44258;51.288;12.068;2022-11-04T02:54:18;11.95;;;4.93;;
58470;SDS011;44258;51.288;12.068;2022-11-04T02:56:49;12.30;;;4.85;;
58470;SDS011;44258;51.288;12.068;2022-11-04T02:59:18;11.50;;;4.95;;
58470;SDS011;44258;51.288;12.068;2022-11-04T03:01:52;10.75;;;5.07;;
58470;SDS011;44258;51.288;12.068;2022-11-04T03:04:23;13.52;;;5.53;;
58470;SDS011;44258;51.288;12.068;2022-11-04T03:06:53;11.48;;;5.22;;
58470;SDS011;44258;51.288;12.068;2022-11-04T03:09:22;12.35;;;5.00;;
58470;SDS011;44258;51.288;12.068;2022-11-04T03:11:52;13.30;;;5.07;;
58470;SDS011;44258;51.288;12.068;2022-11-04T03:14:23;13.10;;;5.82;;
58470;SDS011;44258;51.288;12.068;2022-11-04T03:16:57;12.52;;;5.22;;
58470;SDS011;44258;51.288;12.068;2022-11-04T03:19:28;10.93;;;4.95;;
58470;SDS011;44258;51.288;12.068;2022-11-04T03:22:02;11.18;;;5.30;;
58470;SDS011;44258;51.288;12.068;2022-11-04T03:24:31;13.18;;;5.50;;
58470;SDS011;44258;51.288;12.068;2022-11-04T03:26:58;11.93;;;5.13;;
58470;SDS011;44258;51.288;12.068;2022-11-04T03:29:28;12.18;;;5.15;;
58470;SDS011;44258;51.288;12.068;2022-11-04T03:32:02;15.40;;;5.72;;
58470;SDS011;44258;51.288;12.068;2022-11-04T03:34:31;9.93;;;5.10;;
58470;SDS011;44258;51.288;12.068;2022-11-04T03:36:58;14.23;;;5.70;;
58470;SDS011;44258;51.288;12.068;2022-11-04T03:39:25;14.80;;;5.82;;
58470;SDS011;44258;51.288;12.068;2022-11-04T03:41:52;14.38;;;5.60;;
58470;SDS011;44258;51.288;12.068;2022-11-04T03:44:21;14.85;;;5.65;;
58470;SDS011;44258;51.288;12.068;2022-11-04T03:46:49;13.18;;;5.68;;
58470;SDS011;44258;51.288;12.068;2022-11-04T03:49:17;13.45;;;5.25;;
58470;SDS011;44258;51.288;12.068;2022-11-04T03:51:45;14.52;;;6.18;;
58470;SDS011;44258;51.288;12.068;2022-11-04T03:54:12;11.77;;;5.43;;
58470;SDS011;44258;51.288;12.068;2022-11-04T03:56:44;18.25;;;6.40;;
58470;SDS011;44258;51.288;12.068;2022-11-04T03:59:29;12.23;;;5.07;;
58470;SDS011;44258;51.288;12.068;2022-11-04T04:02:07;14.10;;;6.38;;
58470;SDS011;44258;51.288;12.068;2022-11-04T04:04:43;13.02;;;5.65;;
58470;SDS011;44258;51.288;12.068;2022-11-04T04:07:18;10.50;;;5.10;;
58470;SDS011;44258;51.288;12.068;2022-11-04T04:09:59;14.80;;;6.03;;
58470;SDS011;44258;51.288;12.068;2022-11-04T04:12:52;13.88;;;5.70;;
58470;SDS011;44258;51.288;12.068;2022-11-04T04:15:25;12.35;;;5.45;;
58470;SDS011;44258;51.288;12.068;2022-11-04T04:17:56;14.48;;;6.03;;
58470;SDS011;44258;51.288;12.068;2022-11-04T04:20:28;12.68;;;5.40;;
58470;SDS011;44258;51.288;12.068;2022-11-04T04:22:59;15.27;;;5.68;;
58470;SDS011;44258;51.288;12.068;2022-11-04T04:25:50;12.40;;;5.70;;
58470;SDS011;44258;51.288;12.068;2022-11-04T04:28:36;13.48;;;5.53;;
58470;SDS011;44258;51.288;12.068;2022-11-04T04:31:05;14.23;;;5.63;;
58470;SDS011;44258;51.288;12.068;2022-11-04T04:33:33;14.32;;;6.18;;
58470;SDS011;44258;51.288;12.068;2022-11-04T04:36:01;13.38;;;5.63;;
58470;SDS011;44258;51.288;12.068;2022-11-04T04:38:30;14.43;;;6.13;;
58470;SDS011;44258;51.288;12.068;2022-11-04T04:41:16;13.20;;;5.80;;
58470;SDS011;44258;51.288;12.068;2022-11-04T04:46:47;12.73;;;5.47;;
58470;SDS011;44258;51.288;12.068;2022-11-04T04:49:17;16.13;;;6.10;;
58470;SDS011;44258;51.288;12.068;2022-11-04T04:51:46;13.27;;;5.95;;
58470;SDS011;44258;51.288;12.068;2022-11-04T04:54:13;13.93;;;5.88;;
58470;SDS011;44258;51.288;12.068;2022-11-04T04:56:40;13.25;;;5.60;;
58470;SDS011;44258;51.288;12.068;2022-11-04T04:59:06;12.63;;;5.20;;
58470;SDS011;44258;51.288;12.068;2022-11-04T05:01:33;11.07;;;4.93;;
58470;SDS011;44258;51.288;12.068;2022-11-04T05:04:03;13.23;;;5.38;;
58470;SDS011;44258;51.288;12.068;2022-11-04T05:06:29;13.02;;;5.28;;
58470;SDS011;44258;51.288;12.068;2022-11-04T05:08:57;10.40;;;5.03;;
58470;SDS011;44258;51.288;12.068;2022-11-04T05:11:24;14.70;;;5.82;;
58470;SDS011;44258;51.288;12.068;2022-11-04T05:13:50;13.82;;;5.10;;
58470;SDS011;44258;51.288;12.068;2022-11-04T05:18:42;14.30;;;5.18;;
58470;SDS011;44258;51.288;12.068;2022-11-04T05:21:09;11.32;;;4.35;;
58470;SDS011;44258;51.288;12.068;2022-11-04T05:23:38;10.82;;;4.65;;
58470;SDS011;44258;51.288;12.068;2022-11-04T05:26:06;12.88;;;4.70;;
58470;SDS011;44258;51.288;12.068;2022-11-04T05:28:33;11.18;;;4.70;;
58470;SDS011;44258;51.288;12.068;2022-11-04T05:31:03;12.18;;;5.00;;
58470;SDS011;44258;51.288;12.068;2022-11-04T05:33:30;13.70;;;4.75;;
58470;SDS011;44258;51.288;12.068;2022-11-04T05:36:04;10.73;;;4.30;;
58470;SDS011;44258;51.288;12.068;2022-11-04T05:38:31;10.65;;;4.55;;
58470;SDS011;44258;51.288;12.068;2022-11-04T05:40:57;13.18;;;4.22;;
58470;SDS011;44258;51.288;12.068;2022-11-04T05:43:25;10.60;;;4.50;;
58470;SDS011;44258;51.288;12.068;2022-11-04T05:45:53;11.00;;;4.38;;
58470;SDS011;44258;51.288;12.068;2022-11-04T05:48:19;12.93;;;4.70;;
58470;SDS011;44258;51.288;12.068;2022-11-04T05:50:46;9.45;;;4.00;;
58470;SDS011;44258;51.288;12.068;2022-11-04T05:53:13;9.10;;;4.30;;
58470;SDS011;44258;51.288;12.068;2022-11-04T05:55:39;12.30;;;4.45;;
58470;SDS011;44258;51.288;12.068;2022-11-04T05:58:06;11.07;;;4.07;;
58470;SDS011;44258;51.288;12.068;2022-11-04T06:00:34;8.40;;;3.88;;
58470;SDS011;44258;51.288;12.068;2022-11-04T06:03:00;11.80;;;4.10;;
58470;SDS011;44258;51.288;12.068;2022-11-04T06:05:27;8.82;;;4.07;;
58470;SDS011;44258;51.288;12.068;2022-11-04T06:07:54;8.60;;;3.90;;
58470;SDS011;44258;51.288;12.068;2022-11-04T06:10:21;9.88;;;4.40;;
58470;SDS011;44258;51.288;12.068;2022-11-04T06:12:48;8.45;;;4.05;;
58470;SDS011;44258;51.288;12.068;2022-11-04T06:15:15;9.25;;;3.88;;
58470;SDS011;44258;51.288;12.068;2022-11-04T06:17:43;10.95;;;3.80;;
58470;SDS011;44258;51.288;12.068;2022-11-04T06:20:10;8.82;;;3.67;;
58470;SDS011;44258;51.288;12.068;2022-11-04T06:22:37;9.70;;;3.50;;
58470;SDS011;44258;51.288;12.068;2022-11-04T06:25:03;10.00;;;3.55;;
58470;SDS011;44258;51.288;12.068;2022-11-04T06:27:30;8.23;;;3.90;;
58470;SDS011;44258;51.288;12.068;2022-11-04T06:29:57;7.78;;;3.47;;
58470;SDS011;44258;51.288;12.068;2022-11-04T06:32:23;8.88;;;3.53;;
58470;SDS011;44258;51.288;12.068;2022-11-04T06:34:51;8.85;;;3.47;;
58470;SDS011;44258;51.288;12.068;2022-11-04T06:37:18;9.27;;;3.38;;
58470;SDS011;44258;51.288;12.068;2022-11-04T06:39:44;7.50;;;3.40;;
58470;SDS011;44258;51.288;12.068;2022-11-04T06:42:11;8.38;;;3.55;;
58470;SDS011;44258;51.288;12.068;2022-11-04T06:44:37;8.85;;;4.10;;
58470;SDS011;44258;51.288;12.068;2022-11-04T06:47:04;9.30;;;3.55;;
58470;SDS011;44258;51.288;12.068;2022-11-04T06:49:30;9.07;;;3.85;;
58470;SDS011;44258;51.288;12.068;2022-11-04T06:51:58;9.02;;;3.53;;
58470;SDS011;44258;51.288;12.068;2022-11-04T06:54:26;9.18;;;3.65;;
58470;SDS011;44258;51.288;12.068;2022-11-04T06:56:53;8.45;;;3.60;;
58470;SDS011;44258;51.288;12.068;2022-11-04T06:59:19;9.77;;;3.92;;
58470;SDS011;44258;51.288;12.068;2022-11-04T07:01:48;9.85;;;3.70;;
58470;SDS011;44258;51.288;12.068;2022-11-04T07:04:15;9.80;;;3.92;;
58470;SDS011;44258;51.288;12.068;2022-11-04T07:06:42;8.18;;;3.58;;
58470;SDS011;44258;51.288;12.068;2022-11-04T07:09:12;9.77;;;3.83;;
58470;SDS011;44258;51.288;12.068;2022-11-04T07:11:40;9.18;;;4.20;;
58470;SDS011;44258;51.288;12.068;2022-11-04T07:14:08;8.93;;;3.85;;
58470;SDS011;44258;51.288;12.068;2022-11-04T07:16:35;9.50;;;3.88;;
58470;SDS011;44258;51.288;12.068;2022-11-04T07:19:02;9.25;;;3.38;;
58470;SDS011;44258;51.288;12.068;2022-11-04T07:21:28;8.23;;;3.58;;
58470;SDS011;44258;51.288;12.068;2022-11-04T07:23:55;9.68;;;3.50;;
58470;SDS011;44258;51.288;12.068;2022-11-04T07:26:24;8.60;;;3.55;;
58470;SDS011;44258;51.288;12.068;2022-11-04T07:28:50;8.02;;;3.25;;
58470;SDS011;44258;51.288;12.068;2022-11-04T07:31:17;7.72;;;2.85;;
58470;SDS011;44258;51.288;12.068;2022-11-04T07:33:44;8.45;;;3.40;;
58470;SDS011;44258;51.288;12.068;2022-11-04T07:36:14;8.00;;;3.63;;
58470;SDS011;44258;51.288;12.068;2022-11-04T07:38:42;8.55;;;3.10;;
58470;SDS011;44258;51.288;12.068;2022-11-04T07:41:08;10.68;;;3.70;;
58470;SDS011;44258;51.288;12.068;2022-11-04T07:43:36;8.15;;;3.30;;
58470;SDS011;44258;51.288;12.068;2022-11-04T07:46:03;9.77;;;3.08;;
58470;SDS011;44258;51.288;12.068;2022-11-04T07:48:32;8.90;;;3.20;;
58470;SDS011;44258;51.288;12.068;2022-11-04T07:50:59;7.22;;;2.90;;
58470;SDS011;44258;51.288;12.068;2022-11-04T07:53:26;7.57;;;3.15;;
58470;SDS011;44258;51.288;12.068;2022-11-04T07:55:53;6.45;;;2.53;;
58470;SDS011;44258;51.288;12.068;2022-11-04T07:58:20;7.75;;;2.67;;
58470;SDS011;44258;51.288;12.068;2022-11-04T08:00:49;5.75;;;2.40;;
58470;SDS011;44258;51.288;12.068;2022-11-04T08:03:16;5.78;;;2.10;;
58470;SDS011;44258;51.288;12.068;2022-11-04T08:05:43;5.78;;;2.30;;
58470;SDS011;44258;51.288;12.068;2022-11-04T08:08:09;5.43;;;2.20;;
58470;SDS011;44258;51.288;12.068;2022-11-04T08:10:36;4.20;;;1.83;;
58470;SDS011;44258;51.288;12.068;2022-11-04T08:13:02;5.25;;;1.70;;
58470;SDS011;44258;51.288;12.068;2022-11-04T08:15:29;4.13;;;2.05;;
58470;SDS011;44258;51.288;12.068;2022-11-04T08:17:57;5.70;;;1.88;;
58470;SDS011;44258;51.288;12.068;2022-11-04T08:20:23;5.68;;;2.03;;
58470;SDS011;44258;51.288;12.068;2022-11-04T08:22:50;3.45;;;1.50;;
58470;SDS011;44258;51.288;12.068;2022-11-04T08:25:16;4.97;;;2.10;;
58470;SDS011;44258;51.288;12.068;2022-11-04T08:27:43;6.13;;;1.98;;
58470;SDS011;44258;51.288;12.068;2022-11-04T08:30:10;4.22;;;2.00;;
58470;SDS011;44258;51.288;12.068;2022-11-04T08:32:37;5.40;;;2.05;;
58470;SDS011;44258;51.288;12.068;2022-11-04T08:35:05;4.10;;;1.83;;
58470;SDS011;44258;51.288;12.068;2022-11-04T08:37:33;4.82;;;2.10;;
58470;SDS011;44258;51.288;12.068;2022-11-04T08:40:00;4.40;;;1.92;;
58470;SDS011;44258;51.288;12.068;2022-11-04T08:42:27;4.53;;;1.80;;
58470;SDS011;44258;51.288;12.068;2022-11-04T08:44:54;3.88;;;1.70;;
58470;SDS011;44258;51.288;12.068;2022-11-04T08:47:20;3.88;;;1.63;;
58470;SDS011;44258;51.288;12.068;2022-11-04T08:49:47;5.03;;;2.40;;
58470;SDS011;44258;51.288;12.068;2022-11-04T08:52:15;4.82;;;1.90;;
58470;SDS011;44258;51.288;12.068;2022-11-04T08:54:42;4.45;;;1.75;;
58470;SDS011;44258;51.288;12.068;2022-11-04T08:57:09;4.38;;;1.77;;
58470;SDS011;44258;51.288;12.068;2022-11-04T08:59:35;5.97;;;1.80;;
58470;SDS011;44258;51.288;12.068;2022-11-04T09:02:02;4.70;;;2.20;;
58470;SDS011;44258;51.288;12.068;2022-11-04T09:04:29;5.18;;;2.40;;
58470;SDS011;44258;51.288;12.068;2022-11-04T09:06:55;5.22;;;2.60;;
58470;SDS011;44258;51.288;12.068;2022-11-04T09:09:23;6.40;;;2.83;;
58470;SDS011;44258;51.288;12.068;2022-11-04T09:11:50;6.07;;;2.78;;
58470;SDS011;44258;51.288;12.068;2022-11-04T09:14:16;4.85;;;2.58;;
58470;SDS011;44258;51.288;12.068;2022-11-04T09:16:43;4.72;;;2.17;;
58470;SDS011;44258;51.288;12.068;2022-11-04T09:19:10;5.05;;;2.40;;
58470;SDS011;44258;51.288;12.068;2022-11-04T09:21:36;6.47;;;2.58;;
58470;SDS011;44258;51.288;12.068;2022-11-04T09:24:03;5.80;;;2.17;;
58470;SDS011;44258;51.288;12.068;2022-11-04T09:26:33;5.22;;;2.20;;
58470;SDS011;44258;51.288;12.068;2022-11-04T09:29:02;4.60;;;1.92;;
58470;SDS011;44258;51.288;12.068;2022-11-04T09:31:30;5.82;;;1.80;;
58470;SDS011;44258;51.288;12.068;2022-11-04T09:33:57;3.15;;;1.80;;
58470;SDS011;44258;51.288;12.068;2022-11-04T09:36:24;4.60;;;1.73;;
58470;SDS011;44258;51.288;12.068;2022-11-04T09:38:52;3.58;;;1.38;;
58470;SDS011;44258;51.288;12.068;2022-11-04T09:41:23;3.15;;;1.52;;
58470;SDS011;44258;51.288;12.068;2022-11-04T09:44:03;3.60;;;1.60;;
58470;SDS011;44258;51.288;12.068;2022-11-04T09:46:40;4.10;;;1.80;;
58470;SDS011;44258;51.288;12.068;2022-11-04T09:49:09;2.65;;;1.50;;
58470;SDS011;44258;51.288;12.068;2022-11-04T09:51:39;3.53;;;1.85;;
58470;SDS011;44258;51.288;12.068;2022-11-04T09:54:07;3.50;;;1.40;;
58470;SDS011;44258;51.288;12.068;2022-11-04T09:56:43;4.47;;;2.00;;
58470;SDS011;44258;51.288;12.068;2022-11-04T09:59:16;2.97;;;1.73;;
58470;SDS011;44258;51.288;12.068;2022-11-04T10:01:50;5.13;;;1.92;;
58470;SDS011;44258;51.288;12.068;2022-11-04T10:04:24;2.25;;;1.33;;
58470;SDS011;44258;51.288;12.068;2022-11-04T10:07:01;3.35;;;1.30;;
58470;SDS011;44258;51.288;12.068;2022-11-04T10:09:48;3.95;;;2.00;;
58470;SDS011;44258;51.288;12.068;2022-11-04T10:12:28;3.78;;;1.20;;
58470;SDS011;44258;51.288;12.068;2022-11-04T10:15:13;2.47;;;1.15;;
58470;SDS011;44258;51.288;12.068;2022-11-04T10:17:55;2.53;;;1.13;;
58470;SDS011;44258;51.288;12.068;2022-11-04T10:20:38;2.47;;;1.10;;
58470;SDS011;44258;51.288;12.068;2022-11-04T10:23:15;3.63;;;1.40;;
58470;SDS011;44258;51.288;12.068;2022-11-04T10:25:47;3.80;;;1.50;;
58470;SDS011;44258;51.288;12.068;2022-11-04T10:28:16;3.53;;;1.27;;
58470;SDS011;44258;51.288;12.068;2022-11-04T10:30:47;3.13;;;1.38;;
58470;SDS011;44258;51.288;12.068;2022-11-04T10:33:20;4.47;;;1.60;;
58470;SDS011;44258;51.288;12.068;2022-11-04T10:35:52;3.28;;;1.55;;
58470;SDS011;44258;51.288;12.068;2022-11-04T10:38:31;2.83;;;1.48;;
58470;SDS011;44258;51.288;12.068;2022-11-04T10:41:01;3.78;;;1.70;;
58470;SDS011;44258;51.288;12.068;2022-11-04T10:43:38;3.97;;;1.55;;
58470;SDS011;44258;51.288;12.068;2022-11-04T10:46:14;4.53;;;1.40;;
58470;SDS011;44258;51.288;12.068;2022-11-04T10:48:54;2.47;;;1.05;;
58470;SDS011;44258;51.288;12.068;2022-11-04T10:51:27;2.47;;;1.48;;
58470;SDS011;44258;51.288;12.068;2022-11-04T10:53:55;2.95;;;1.33;;
58470;SDS011;44258;51.288;12.068;2022-11-04T10:56:24;3.45;;;1.45;;
58470;SDS011;44258;51.288;12.068;2022-11-04T10:59:04;3.83;;;1.40;;
58470;SDS011;44258;51.288;12.068;2022-11-04T11:01:46;3.40;;;1.35;;
58470;SDS011;44258;51.288;12.068;2022-11-04T11:04:23;3.10;;;1.45;;
58470;SDS011;44258;51.288;12.068;2022-11-04T11:06:52;3.95;;;1.38;;
58470;SDS011;44258;51.288;12.068;2022-11-04T11:09:21;1.95;;;1.20;;
58470;SDS011;44258;51.288;12.068;2022-11-04T11:11:52;2.47;;;1.40;;
58470;SDS011;44258;51.288;12.068;2022-11-04T11:14:30;2.40;;;1.30;;
58470;SDS011;44258;51.288;12.068;2022-11-04T11:22:29;2.53;;;1.25;;
58470;SDS011;44258;51.288;12.068;2022-11-04T11:27:52;3.42;;;1.42;;
58470;SDS011;44258;51.288;12.068;2022-11-04T11:30:22;2.53;;;1.20;;
58470;SDS011;44258;51.288;12.068;2022-11-04T11:32:54;3.10;;;1.25;;
58470;SDS011;44258;51.288;12.068;2022-11-04T11:35:25;3.38;;;1.42;;
58470;SDS011;44258;51.288;12.068;2022-11-04T11:37:54;2.50;;;1.30;;
58470;SDS011;44258;51.288;12.068;2022-11-04T11:40:23;4.18;;;1.55;;
58470;SDS011;44258;51.288;12.068;2022-11-04T11:42:51;2.78;;;1.42;;
58470;SDS011;44258;51.288;12.068;2022-11-04T11:45:18;3.88;;;1.80;;
58470;SDS011;44258;51.288;12.068;2022-11-04T11:47:48;4.63;;;1.88;;
58470;SDS011;44258;51.288;12.068;2022-11-04T11:50:21;7.22;;;2.25;;
58470;SDS011;44258;51.288;12.068;2022-11-04T11:52:54;5.47;;;2.05;;
58470;SDS011;44258;51.288;12.068;2022-11-04T11:55:38;3.90;;;1.70;;
58470;SDS011;44258;51.288;12.068;2022-11-04T11:58:11;4.75;;;1.70;;
58470;SDS011;44258;51.288;12.068;2022-11-04T12:00:45;5.53;;;1.63;;
58470;SDS011;44258;51.288;12.068;2022-11-04T12:03:16;6.28;;;1.73;;
58470;SDS011;44258;51.288;12.068;2022-11-04T12:05:49;3.72;;;1.50;;
58470;SDS011;44258;51.288;12.068;2022-11-04T12:08:31;2.85;;;1.35;;
58470;SDS011;44258;51.288;12.068;2022-11-04T12:11:10;3.72;;;1.73;;
58470;SDS011;44258;51.288;12.068;2022-11-04T12:13:41;2.97;;;1.40;;
58470;SDS011;44258;51.288;12.068;2022-11-04T12:16:14;4.03;;;1.50;;
58470;SDS011;44258;51.288;12.068;2022-11-04T12:21:23;3.00;;;1.15;;
58470;SDS011;44258;51.288;12.068;2022-11-04T12:23:58;3.38;;;1.13;;
58470;SDS011;44258;51.288;12.068;2022-11-04T12:26:32;5.10;;;1.38;;
58470;SDS011;44258;51.288;12.068;2022-11-04T12:29:17;1.83;;;1.15;;
58470;SDS011;44258;51.288;12.068;2022-11-04T12:32:03;3.10;;;1.00;;
58470;SDS011;44258;51.288;12.068;2022-11-04T12:34:47;2.50;;;0.90;;
58470;SDS011;44258;51.288;12.068;2022-11-04T12:37:32;3.10;;;1.00;;
58470;SDS011;44258;51.288;12.068;2022-11-04T12:40:10;3.78;;;1.00;;
58470;SDS011;44258;51.288;12.068;2022-11-04T12:42:45;6.25;;;1.20;;
58470;SDS011;44258;51.288;12.068;2022-11-04T12:45:22;2.25;;;1.00;;
58470;SDS011;44258;51.288;12.068;2022-11-04T12:47:58;2.28;;;1.00;;
58470;SDS011;44258;51.288;12.068;2022-11-04T12:50:52;1.70;;;0.82;;
58470;SDS011;44258;51.288;12.068;2022-11-04T12:53:42;2.97;;;1.00;;
58470;SDS011;44258;51.288;12.068;2022-11-04T12:56:30;2.08;;;1.23;;
58470;SDS011;44258;51.288;12.068;2022-11-04T12:59:15;3.90;;;0.82;;
58470;SDS011;44258;51.288;12.068;2022-11-04T13:01:55;2.08;;;0.85;;
58470;SDS011;44258;51.288;12.068;2022-11-04T13:04:28;2.00;;;0.90;;
58470;SDS011;44258;51.288;12.068;2022-11-04T13:06:59;1.98;;;0.90;;
58470;SDS011;44258;51.288;12.068;2022-11-04T13:09:33;1.08;;;0.73;;
58470;SDS011;44258;51.288;12.068;2022-11-04T13:12:03;1.58;;;0.95;;
58470;SDS011;44258;51.288;12.068;2022-11-04T13:14:40;1.95;;;0.70;;
58470;SDS011;44258;51.288;12.068;2022-11-04T13:17:12;2.92;;;0.75;;
58470;SDS011;44258;51.288;12.068;2022-11-04T13:19:44;3.28;;;1.23;;
58470;SDS011;44258;51.288;12.068;2022-11-04T13:22:14;3.42;;;1.45;;
58470;SDS011;44258;51.288;12.068;2022-11-04T13:24:48;3.28;;;1.27;;
58470;SDS011;44258;51.288;12.068;2022-11-04T13:27:18;12.80;;;1.60;;
58470;SDS011;44258;51.288;12.068;2022-11-04T13:29:48;4.10;;;1.13;;
58470;SDS011;44258;51.288;12.068;2022-11-04T13:32:20;3.40;;;1.10;;
58470;SDS011;44258;51.288;12.068;2022-11-04T13:34:56;10.03;;;3.33;;
58470;SDS011;44258;51.288;12.068;2022-11-04T13:37:31;6.15;;;2.00;;
58470;SDS011;44258;51.288;12.068;2022-11-04T13:40:05;6.55;;;2.08;;
58470;SDS011;44258;51.288;12.068;2022-11-04T13:42:43;5.78;;;2.33;;
58470;SDS011;44258;51.288;12.068;2022-11-04T13:45:45;5.53;;;1.83;;
58470;SDS011;44258;51.288;12.068;2022-11-04T13:48:16;5.35;;;2.20;;
58470;SDS011;44258;51.288;12.068;2022-11-04T13:50:54;4.00;;;1.90;;
58470;SDS011;44258;51.288;12.068;2022-11-04T13:53:38;4.70;;;1.70;;
58470;SDS011;44258;51.288;12.068;2022-11-04T13:56:08;4.55;;;1.45;;
58470;SDS011;44258;51.288;12.068;2022-11-04T13:58:36;3.15;;;1.30;;
58470;SDS011;44258;51.288;12.068;2022-11-04T14:01:16;2.53;;;1.17;;
58470;SDS011;44258;51.288;12.068;2022-11-04T14:03:53;2.55;;;1.17;;
58470;SDS011;44258;51.288;12.068;2022-11-04T14:12:35;4.57;;;1.50;;
58470;SDS011;44258;51.288;12.068;2022-11-04T14:15:03;6.95;;;1.52;;
58470;SDS011;44258;51.288;12.068;2022-11-04T14:17:56;4.85;;;1.40;;
58470;SDS011;44258;51.288;12.068;2022-11-04T14:20:27;5.47;;;1.40;;
58470;SDS011;44258;51.288;12.068;2022-11-04T14:22:56;3.92;;;1.40;;
58470;SDS011;44258;51.288;12.068;2022-11-04T14:25:31;2.55;;;1.35;;
58470;SDS011;44258;51.288;12.068;2022-11-04T14:28:14;3.97;;;1.50;;
58470;SDS011;44258;51.288;12.068;2022-11-04T14:30:45;4.95;;;1.50;;
58470;SDS011;44258;51.288;12.068;2022-11-04T14:33:35;5.75;;;1.60;;
58470;SDS011;44258;51.288;12.068;2022-11-04T14:36:24;4.82;;;1.30;;
58470;SDS011;44258;51.288;12.068;2022-11-04T14:38:55;4.85;;;1.52;;
58470;SDS011;44258;51.288;12.068;2022-11-04T14:41:30;2.50;;;1.15;;
58470;SDS011;44258;51.288;12.068;2022-11-04T14:44:20;4.38;;;1.50;;
58470;SDS011;44258;51.288;12.068;2022-11-04T14:46:54;3.03;;;1.13;;
58470;SDS011;44258;51.288;12.068;2022-11-04T14:49:36;2.63;;;1.10;;
58470;SDS011;44258;51.288;12.068;2022-11-04T14:52:05;2.60;;;1.30;;
58470;SDS011;44258;51.288;12.068;2022-11-04T14:54:42;2.63;;;1.15;;
58470;SDS011;44258;51.288;12.068;2022-11-04T14:57:12;3.67;;;1.27;;
58470;SDS011;44258;51.288;12.068;2022-11-04T14:59:41;7.32;;;1.77;;
58470;SDS011;44258;51.288;12.068;2022-11-04T15:02:10;3.25;;;1.40;;
58470;SDS011;44258;51.288;12.068;2022-11-04T15:04:44;4.60;;;2.00;;
58470;SDS011;44258;51.288;12.068;2022-11-04T15:07:22;6.55;;;2.00;;
58470;SDS011;44258;51.288;12.068;2022-11-04T15:09:51;7.10;;;1.80;;
58470;SDS011;44258;51.288;12.068;2022-11-04T15:12:18;8.20;;;2.33;;
58470;SDS011;44258;51.288;12.068;2022-11-04T15:17:53;7.22;;;2.40;;
58470;SDS011;44258;51.288;12.068;2022-11-04T15:20:25;6.22;;;2.05;;
58470;SDS011;44258;51.288;12.068;2022-11-04T15:22:54;9.35;;;2.20;;